Time;durP1;ratioP1;P1;durP2;ratioP2;P2;SDS_P1;SDS_P2;PMS_P1;PMS_P2;Temp;Humidity;BMP_temperature;BMP_pressure;BME280_temperature;BME280_humidity;BME280_pressure;Samples;Min_cycle;Max_cycle;Signal;HPM_P1;HPM_P2
2022/08/07 00:00:21;;;;;;;8.13;5.53;;;15.20;99.90;;;;;;5134023;28;20043;-69
2022/08/07 00:02:47;;;;;;;6.77;5.20;;;15.10;99.90;;;;;;5133573;28;20103;-69
2022/08/07 00:05:13;;;;;;;9.43;5.60;;;15.10;99.90;;;;;;5134165;28;20132;-69
2022/08/07 00:07:38;;;;;;;7.43;5.20;;;15.10;99.90;;;;;;5133765;28;20471;-69
2022/08/07 00:10:05;;;;;;;9.20;5.97;;;15.00;99.90;;;;;;5115317;28;20103;-69
2022/08/07 00:12:30;;;;;;;8.63;5.67;;;15.00;99.90;;;;;;5133628;28;20047;-69
2022/08/07 00:14:57;;;;;;;8.97;5.20;;;15.00;99.90;;;;;;5133400;28;20276;-69
2022/08/07 00:17:23;;;;;;;7.27;4.70;;;15.00;99.90;;;;;;5133682;28;20047;-68
2022/08/07 00:19:49;;;;;;;7.07;4.83;;;15.00;99.90;;;;;;5133496;28;20292;-69
2022/08/07 00:22:15;;;;;;;7.47;5.30;;;15.10;99.90;;;;;;5133775;28;20039;-69
2022/08/07 00:24:41;;;;;;;9.67;5.73;;;15.10;99.90;;;;;;5133704;28;20079;-68
2022/08/07 00:27:07;;;;;;;7.70;5.63;;;15.10;99.90;;;;;;5133357;27;20692;-68
2022/08/07 00:29:32;;;;;;;8.43;5.40;;;15.00;99.90;;;;;;5137619;27;20046;-69
2022/08/07 00:31:58;;;;;;;7.73;5.23;;;15.00;99.90;;;;;;5137221;27;20360;-69
2022/08/07 00:34:27;;;;;;;8.13;5.27;;;14.90;99.90;;;;;;5137509;27;20050;-69
2022/08/07 00:36:54;;;;;;;8.70;4.90;;;14.80;99.90;;;;;;5118906;27;20042;-69
2022/08/07 00:39:20;;;;;;;8.67;5.70;;;14.80;99.90;;;;;;5137438;27;20292;-69
2022/08/07 00:41:51;;;;;;;8.00;4.90;;;14.90;99.90;;;;;;5137359;27;20273;-69
2022/08/07 00:44:17;;;;;;;7.40;5.43;;;14.80;99.90;;;;;;5137387;27;20139;-69
2022/08/07 00:46:43;;;;;;;7.73;5.60;;;14.80;99.90;;;;;;5137364;27;20680;-69
2022/08/07 00:49:09;;;;;;;8.13;5.40;;;14.80;99.90;;;;;;5136707;27;20039;-69
2022/08/07 00:51:35;;;;;;;6.93;5.00;;;14.80;99.90;;;;;;5118972;27;20070;-69
2022/08/07 00:54:00;;;;;;;7.53;5.27;;;14.80;99.90;;;;;;5136903;27;20277;-68
2022/08/07 00:56:28;;;;;;;6.13;4.77;;;14.70;99.90;;;;;;5137441;27;20329;-69
2022/08/07 00:58:55;;;;;;;7.50;4.77;;;14.80;99.90;;;;;;5136850;27;20085;-68
2022/08/07 01:01:21;;;;;;;7.33;4.50;;;14.70;99.90;;;;;;5137103;27;20284;-69
2022/08/07 01:03:50;;;;;;;8.23;4.90;;;14.70;99.90;;;;;;5137127;27;20578;-69
2022/08/07 01:06:16;;;;;;;8.03;4.90;;;14.70;99.90;;;;;;5136982;27;20324;-69
2022/08/07 01:08:43;;;;;;;6.97;5.23;;;14.70;99.90;;;;;;5118554;27;20284;-69
2022/08/07 01:11:09;;;;;;;7.63;4.83;;;14.60;99.90;;;;;;5118267;27;20293;-69
2022/08/07 01:13:35;;;;;;;6.30;4.87;;;14.60;99.90;;;;;;5136874;27;20285;-68
2022/08/07 01:16:02;;;;;;;8.53;5.00;;;14.60;99.90;;;;;;5136164;27;20772;-69
2022/08/07 01:18:28;;;;;;;8.57;4.47;;;14.60;99.90;;;;;;5136335;27;20297;-69
2022/08/07 01:21:18;;;;;;;6.70;4.40;;;14.60;99.90;;;;;;5136431;27;20273;-69
2022/08/07 01:23:46;;;;;;;6.77;4.67;;;14.50;99.90;;;;;;5136683;27;20089;-69
2022/08/07 01:26:14;;;;;;;7.00;4.80;;;14.50;99.90;;;;;;5135984;27;21255;-69
2022/08/07 01:28:45;;;;;;;8.23;5.53;;;14.40;99.90;;;;;;5136206;27;20284;-69
2022/08/07 01:31:11;;;;;;;8.40;5.70;;;14.40;99.90;;;;;;5136156;27;20296;-69
2022/08/07 01:33:37;;;;;;;7.57;5.37;;;14.30;99.90;;;;;;5136226;27;20837;-69
2022/08/07 01:36:03;;;;;;;9.33;4.80;;;14.40;99.90;;;;;;5136111;27;20281;-69
2022/08/07 01:38:30;;;;;;;7.00;5.23;;;14.30;99.90;;;;;;5136124;27;20051;-69
2022/08/07 01:41:00;;;;;;;7.43;5.50;;;14.30;99.90;;;;;;5134959;27;20280;-69
2022/08/07 01:43:28;;;;;;;6.73;5.00;;;14.30;99.90;;;;;;5136288;27;20399;-68
2022/08/07 01:45:55;;;;;;;7.90;5.13;;;14.30;99.90;;;;;;5136141;27;20277;-68
2022/08/07 01:48:21;;;;;;;7.50;5.40;;;14.30;99.90;;;;;;5136152;27;20279;-68
2022/08/07 01:50:56;;;;;;;8.40;5.93;;;14.30;99.90;;;;;;5136004;27;20288;-68
2022/08/07 01:53:24;;;;;;;8.27;5.30;;;14.30;99.90;;;;;;5101082;27;20300;-68
2022/08/07 01:55:54;;;;;;;7.27;5.23;;;14.30;99.90;;;;;;5135997;27;20215;-68
2022/08/07 01:58:21;;;;;;;7.70;5.23;;;14.20;99.90;;;;;;5135671;27;20273;-69
2022/08/07 02:00:54;;;;;;;8.23;5.00;;;14.20;99.90;;;;;;5136022;27;20368;-69
2022/08/07 02:03:21;;;;;;;8.07;5.00;;;14.20;99.90;;;;;;5117354;27;20372;-69
2022/08/07 02:05:53;;;;;;;6.87;5.17;;;14.10;99.90;;;;;;5135827;27;20280;-69
2022/08/07 02:08:23;;;;;;;8.33;5.10;;;14.10;99.90;;;;;;5135565;27;20308;-69
2022/08/07 02:10:55;;;;;;;7.30;4.90;;;14.00;99.90;;;;;;5135623;27;20296;-68
2022/08/07 02:13:23;;;;;;;6.73;4.93;;;14.00;99.90;;;;;;5118180;27;20265;-69
2022/08/07 02:15:50;;;;;;;6.87;5.13;;;14.00;99.90;;;;;;5135607;27;20360;-69
2022/08/07 02:18:18;;;;;;;9.53;5.20;;;14.00;99.90;;;;;;5135139;27;20296;-68
2022/08/07 02:20:45;;;;;;;7.77;4.53;;;14.10;99.90;;;;;;5135621;27;20273;-68
2022/08/07 02:23:13;;;;;;;7.23;4.97;;;14.10;99.90;;;;;;5135136;27;20647;-69
2022/08/07 02:25:40;;;;;;;6.70;4.87;;;14.10;99.90;;;;;;5135404;27;20731;-69
2022/08/07 02:28:07;;;;;;;6.40;4.77;;;14.00;99.90;;;;;;5135104;27;20304;-69
2022/08/07 02:30:38;;;;;;;6.97;5.23;;;14.00;99.90;;;;;;5135503;27;20746;-68
2022/08/07 02:33:04;;;;;;;8.57;5.43;;;13.90;99.90;;;;;;5134677;27;20312;-69
2022/08/07 02:35:33;;;;;;;8.40;5.40;;;13.90;99.90;;;;;;5135247;27;20284;-68
2022/08/07 02:38:01;;;;;;;7.87;5.40;;;13.90;99.90;;;;;;5135203;27;20319;-68
2022/08/07 02:40:28;;;;;;;6.57;4.87;;;13.90;99.90;;;;;;5116999;27;20371;-68
2022/08/07 02:42:56;;;;;;;9.10;5.63;;;13.90;99.90;;;;;;5135037;27;20288;-68
2022/08/07 02:45:25;;;;;;;8.97;5.67;;;13.90;99.90;;;;;;5134725;27;20384;-68
2022/08/07 02:47:50;;;;;;;7.63;5.60;;;13.90;99.90;;;;;;5135030;27;20280;-68
2022/08/07 02:50:16;;;;;;;7.27;5.07;;;13.80;99.90;;;;;;5134262;27;20581;-69
2022/08/07 02:52:46;;;;;;;8.03;5.40;;;13.80;99.90;;;;;;5134828;27;20043;-69
2022/08/07 02:55:22;;;;;;;7.50;5.30;;;13.70;99.90;;;;;;5134525;27;20047;-69
2022/08/07 02:57:50;;;;;;;7.10;4.90;;;13.80;99.90;;;;;;5134834;27;20744;-68
2022/08/07 03:00:16;;;;;;;7.10;5.20;;;13.70;99.90;;;;;;5134445;27;20328;-68
2022/08/07 03:02:45;;;;;;;7.03;5.10;;;13.70;99.90;;;;;;5134776;27;20740;-69
2022/08/07 03:05:12;;;;;;;7.30;4.90;;;13.70;99.90;;;;;;5134315;27;20277;-69
2022/08/07 03:07:39;;;;;;;7.50;5.50;;;13.70;99.90;;;;;;5134871;27;20288;-69
2022/08/07 03:10:06;;;;;;;6.73;4.53;;;13.60;99.90;;;;;;5134555;27;20284;-69
2022/08/07 03:12:33;;;;;;;7.67;5.30;;;13.70;99.90;;;;;;5134395;27;20337;-68
2022/08/07 03:15:00;;;;;;;6.03;4.50;;;13.60;99.90;;;;;;5134549;27;20292;-69
2022/08/07 03:17:26;;;;;;;7.03;4.97;;;13.60;99.90;;;;;;5134206;27;21157;-69
2022/08/07 03:19:53;;;;;;;6.53;4.47;;;13.50;99.90;;;;;;5134547;27;20296;-69
2022/08/07 03:22:21;;;;;;;6.90;4.97;;;13.50;99.90;;;;;;5115905;27;20625;-69
2022/08/07 03:24:47;;;;;;;8.03;4.60;;;13.40;99.90;;;;;;5134555;27;20300;-69
2022/08/07 03:27:14;;;;;;;7.27;4.97;;;13.40;99.90;;;;;;5134056;27;20360;-69
2022/08/07 03:29:48;;;;;;;6.90;4.80;;;13.40;99.90;;;;;;5134243;27;20288;-69
2022/08/07 03:32:17;;;;;;;8.25;4.75;;;13.30;99.90;;;;;;5134012;27;20300;-69
2022/08/07 03:34:47;;;;;;;7.67;4.43;;;13.40;99.90;;;;;;5134215;27;20039;-69
2022/08/07 03:37:16;;;;;;;6.03;4.07;;;13.40;99.90;;;;;;5133934;27;20684;-69
2022/08/07 03:39:42;;;;;;;5.90;4.40;;;13.40;99.90;;;;;;5134244;27;20277;-68
2022/08/07 03:42:08;;;;;;;6.30;4.67;;;13.40;99.90;;;;;;5134124;27;20277;-68
2022/08/07 03:44:36;;;;;;;7.93;4.33;;;13.40;99.90;;;;;;5133840;27;20287;-69
2022/08/07 03:47:03;;;;;;;6.17;4.40;;;13.30;99.90;;;;;;5134060;27;20269;-68
2022/08/07 03:49:29;;;;;;;6.57;4.77;;;13.30;99.90;;;;;;5134103;27;20410;-69
2022/08/07 03:51:57;;;;;;;7.53;4.30;;;13.30;99.90;;;;;;5133898;27;20305;-68
2022/08/07 03:54:23;;;;;;;5.77;4.30;;;13.30;99.90;;;;;;5133715;27;20337;-69
2022/08/07 03:56:51;;;;;;;7.10;4.20;;;13.30;99.90;;;;;;5133907;28;20280;-69
2022/08/07 03:59:17;;;;;;;6.43;4.23;;;13.30;99.90;;;;;;5133290;28;20501;-68
2022/08/07 04:01:44;;;;;;;6.53;4.50;;;13.30;99.90;;;;;;5133871;27;20272;-68
2022/08/07 04:04:10;;;;;;;6.50;4.73;;;13.30;99.90;;;;;;5137325;27;20277;-68
2022/08/07 04:06:39;;;;;;;6.43;4.50;;;13.30;99.90;;;;;;5137817;27;20340;-68
2022/08/07 04:09:06;;;;;;;6.97;4.27;;;13.30;99.90;;;;;;5138065;27;20307;-68
2022/08/07 04:11:33;;;;;;;6.47;4.70;;;13.30;99.90;;;;;;5137610;27;20293;-69
2022/08/07 04:14:00;;;;;;;7.87;4.73;;;13.30;99.90;;;;;;5138154;27;20289;-68
2022/08/07 04:16:27;;;;;;;6.17;4.50;;;13.30;99.90;;;;;;5137621;27;20280;-69
2022/08/07 04:18:53;;;;;;;5.83;4.40;;;13.30;99.90;;;;;;5137521;27;20292;-69
2022/08/07 04:21:19;;;;;;;7.90;4.97;;;13.30;99.90;;;;;;5137552;27;20620;-68
2022/08/07 04:23:45;;;;;;;6.50;4.50;;;13.30;99.90;;;;;;5137618;27;20099;-69
2022/08/07 04:26:12;;;;;;;7.03;4.53;;;13.30;99.90;;;;;;5137759;27;20043;-68
2022/08/07 04:28:39;;;;;;;6.50;4.73;;;13.30;99.90;;;;;;5137712;27;20280;-68
2022/08/07 04:31:05;;;;;;;8.83;5.17;;;13.30;99.90;;;;;;5137591;27;20295;-68
2022/08/07 04:33:32;;;;;;;10.10;5.77;;;13.30;99.90;;;;;;5137320;27;20284;-68
2022/08/07 04:35:58;;;;;;;8.27;5.60;;;13.30;99.90;;;;;;5137607;27;20276;-69
2022/08/07 04:38:24;;;;;;;8.60;5.80;;;13.30;99.90;;;;;;5137252;27;20276;-69
2022/08/07 04:40:50;;;;;;;8.37;5.93;;;13.30;99.90;;;;;;5119139;27;20280;-68
2022/08/07 04:43:17;;;;;;;8.80;5.57;;;13.30;99.90;;;;;;5137093;27;20145;-68
2022/08/07 04:46:02;;;;;;;7.83;5.67;;;13.40;99.90;;;;;;5137366;27;20100;-68
2022/08/07 04:48:39;;;;;;;8.23;5.53;;;13.50;99.90;;;;;;5137072;27;20728;-68
2022/08/07 04:51:13;;;;;;;7.83;5.53;;;13.50;99.90;;;;;;5137464;27;20328;-68
2022/08/07 04:53:51;;;;;;;9.00;5.43;;;13.40;99.90;;;;;;5137032;27;20269;-68
2022/08/07 04:56:23;;;;;;;7.83;5.20;;;13.40;99.90;;;;;;5137365;27;20451;-68
2022/08/07 04:58:58;;;;;;;8.83;6.00;;;13.50;99.90;;;;;;5137334;27;20295;-69
2022/08/07 05:01:39;;;;;;;10.53;6.17;;;13.50;99.90;;;;;;5118891;27;20610;-69
2022/08/07 05:04:17;;;;;;;7.40;5.10;;;13.40;99.90;;;;;;5137393;27;20284;-68
2022/08/07 05:06:57;;;;;;;7.00;5.33;;;13.40;99.90;;;;;;5136833;27;20387;-68
2022/08/07 05:09:28;;;;;;;9.50;5.57;;;13.50;99.90;;;;;;5136490;27;20768;-69
2022/08/07 05:11:54;;;;;;;8.43;5.37;;;13.50;99.90;;;;;;5136922;27;20315;-68
2022/08/07 05:14:26;;;;;;;9.17;5.43;;;13.50;99.90;;;;;;5136501;27;20278;-68
2022/08/07 05:16:58;;;;;;;6.73;4.87;;;13.60;99.90;;;;;;5136853;27;20272;-69
2022/08/07 05:19:28;;;;;;;8.87;5.70;;;13.60;99.90;;;;;;5136535;27;20780;-69
2022/08/07 05:21:57;;;;;;;8.90;5.30;;;13.60;99.90;;;;;;5118739;27;20287;-69
2022/08/07 05:24:25;;;;;;;9.40;5.30;;;13.80;99.90;;;;;;5136411;27;20276;-71
2022/08/07 05:26:56;;;;;;;6.77;5.40;;;13.90;99.90;;;;;;5136625;27;20637;-68
2022/08/07 05:29:24;;;;;;;7.60;5.50;;;14.00;99.90;;;;;;5136606;27;20280;-69
2022/08/07 05:31:50;;;;;;;6.57;5.00;;;14.10;99.90;;;;;;5136452;27;20292;-69
2022/08/07 05:34:17;;;;;;;6.97;5.23;;;14.20;99.90;;;;;;5118371;27;20345;-69
2022/08/07 05:36:47;;;;;;;8.87;5.27;;;14.30;99.90;;;;;;5136128;27;20751;-69
2022/08/07 05:39:14;;;;;;;8.50;5.17;;;14.40;99.90;;;;;;5136190;27;20775;-69
2022/08/07 05:41:42;;;;;;;9.30;5.33;;;14.50;99.90;;;;;;5136006;27;20285;-69
2022/08/07 05:44:09;;;;;;;9.83;5.60;;;14.60;99.90;;;;;;5118185;27;20285;-68
2022/08/07 05:46:37;;;;;;;8.43;5.73;;;14.80;99.90;;;;;;5135737;27;20760;-69
2022/08/07 05:49:08;;;;;;;10.67;5.90;;;14.90;99.90;;;;;;5136570;27;20320;-69
2022/08/07 05:51:34;;;;;;;6.73;4.50;;;15.10;99.90;;;;;;5135926;27;20648;-70
2022/08/07 05:54:01;;;;;;;7.80;4.77;;;15.30;99.90;;;;;;5136110;27;20284;-70
2022/08/07 05:56:28;;;;;;;8.03;5.13;;;15.70;99.90;;;;;;5135958;27;20065;-71
2022/08/07 05:58:55;;;;;;;8.20;5.50;;;16.70;99.90;;;;;;5136036;27;20295;-69
2022/08/07 06:01:22;;;;;;;7.43;4.60;;;18.20;99.90;;;;;;5135945;27;20275;-69
2022/08/07 06:03:53;;;;;;;7.90;4.37;;;19.50;99.90;;;;;;5135596;27;20276;-69
2022/08/07 06:06:20;;;;;;;5.97;4.10;;;20.70;99.90;;;;;;5136097;27;20070;-69
2022/08/07 06:08:46;;;;;;;6.93;4.47;;;21.70;99.90;;;;;;5135605;27;20050;-70
2022/08/07 06:11:12;;;;;;;5.87;4.60;;;22.70;97.80;;;;;;5135635;27;20047;-69
2022/08/07 06:13:39;;;;;;;7.27;4.70;;;23.50;91.60;;;;;;5135445;27;20051;-70
2022/08/07 06:16:06;;;;;;;5.87;4.43;;;24.20;83.70;;;;;;5135971;27;20079;-69
2022/08/07 06:18:33;;;;;;;7.53;4.77;;;;;;;;;;5134994;27;20134;-70
2022/08/07 06:21:00;;;;;;;7.23;4.67;;;;;;;;;;5135888;27;20043;-70
2022/08/07 06:23:26;;;;;;;5.60;4.03;;;25.60;94.50;;;;;;5135647;27;20444;-70
2022/08/07 06:25:52;;;;;;;5.67;4.10;;;26.20;69.10;;;;;;5134373;27;20047;-70
2022/08/07 06:28:18;;;;;;;7.93;3.80;;;26.80;58.50;;;;;;5135538;27;20104;-70
2022/08/07 06:30:43;;;;;;;8.67;3.93;;;27.20;66.00;;;;;;5135063;27;20075;-70
2022/08/07 06:33:09;;;;;;;5.57;3.67;;;27.60;54.50;;;;;;5135362;27;20051;-70
2022/08/07 06:35:35;;;;;;;6.53;3.70;;;;;;;;;;5116921;27;20088;-70
2022/08/07 06:38:05;;;;;;;7.20;3.93;;;28.30;84.50;;;;;;5135224;27;20475;-70
2022/08/07 06:40:37;;;;;;;6.10;4.40;;;;;;;;;;5117152;27;20514;-70
2022/08/07 06:43:05;;;;;;;5.87;3.80;;;;;;;;;;5135150;27;20380;-70
2022/08/07 06:45:33;;;;;;;5.00;3.60;;;29.10;43.40;;;;;;5135125;27;20043;-70
2022/08/07 06:47:59;;;;;;;5.93;3.80;;;29.20;47.00;;;;;;5134970;27;20118;-70
2022/08/07 06:50:26;;;;;;;5.50;3.67;;;29.50;46.00;;;;;;5134935;27;20092;-70
2022/08/07 06:52:54;;;;;;;5.65;3.40;;;29.70;46.10;;;;;;5134588;27;20043;-70
2022/08/07 06:55:28;;;;;;;5.15;3.60;;;30.00;44.70;;;;;;5116459;27;20126;-70
2022/08/07 06:58:05;;;;;;;5.03;3.42;;;30.50;42.80;;;;;;5134551;27;20058;-70
2022/08/07 07:00:37;;;;;;;4.93;3.10;;;30.70;41.20;;;;;;5134890;27;20115;-70
2022/08/07 07:03:04;;;;;;;7.10;3.55;;;;;;;;;;5134924;27;20454;-70
2022/08/07 07:05:30;;;;;;;5.25;3.10;;;31.10;40.30;;;;;;5134666;27;20043;-70
2022/08/07 07:07:57;;;;;;;4.22;2.95;;;31.10;41.10;;;;;;5134356;27;20047;-71
2022/08/07 07:10:32;;;;;;;5.03;3.60;;;31.50;40.40;;;;;;5134582;27;20486;-70
2022/08/07 07:13:07;;;;;;;5.07;3.70;;;;;;;;;;5134241;27;20047;-71
2022/08/07 07:15:35;;;;;;;4.50;3.03;;;;;;;;;;5134620;27;20126;-72
2022/08/07 07:18:18;;;;;;;4.40;3.20;;;32.10;36.50;;;;;;5134042;27;20082;-72
2022/08/07 07:20:53;;;;;;;4.78;3.13;;;32.20;37.60;;;;;;5135122;27;20051;-72
2022/08/07 07:23:19;;;;;;;4.07;2.90;;;32.40;38.00;;;;;;5134722;27;20443;-72
2022/08/07 07:25:47;;;;;;;4.03;2.83;;;32.70;38.10;;;;;;5134084;27;20047;-72
2022/08/07 07:28:52;;;;;;;4.15;2.70;;;32.70;38.10;;;;;;5134257;27;20122;-72
2022/08/07 07:31:31;;;;;;;4.13;2.40;;;;;;;;;;5082094;27;20138;-72
2022/08/07 07:33:59;;;;;;;4.68;2.90;;;;;;;;;;5133904;27;20134;-72
2022/08/07 07:36:25;;;;;;;6.30;2.75;;;;;;;;;;5133874;27;20464;-72
2022/08/07 07:38:51;;;;;;;7.10;2.90;;;;;;;;;;5133843;27;20535;-72
2022/08/07 07:41:21;;;;;;;5.28;2.45;;;33.30;36.30;;;;;;5116317;27;20055;-72
2022/08/07 07:43:50;;;;;;;5.10;2.83;;;33.40;36.10;;;;;;5133742;27;20043;-72
2022/08/07 07:46:16;;;;;;;6.50;3.83;;;33.50;37.30;;;;;;5133745;27;20544;-72
2022/08/07 07:48:44;;;;;;;5.32;3.50;;;33.50;36.30;;;;;;5133758;27;20047;-73
2022/08/07 07:51:11;;;;;;;5.18;3.42;;;33.60;36.30;;;;;;5133922;27;20122;-72
2022/08/07 07:53:41;;;;;;;5.50;3.60;;;34.00;35.80;;;;;;5134003;27;20099;-72
2022/08/07 07:56:07;;;;;;;4.35;3.47;;;;;;;;;;5134042;27;20126;-72
2022/08/07 07:58:34;;;;;;;4.80;3.28;;;;;;;;;;5133877;28;20055;-72
2022/08/07 08:01:01;;;;;;;5.07;3.42;;;;;;;;;;5133575;28;20175;-72
2022/08/07 08:03:28;;;;;;;5.95;4.10;;;;;;;;;;5133930;28;20075;-72
2022/08/07 08:05:54;;;;;;;6.28;3.53;;;;;;;;;;5133545;28;20482;-72
2022/08/07 08:08:20;;;;;;;6.10;3.47;;;;;;;;;;5133850;28;20150;-72
2022/08/07 08:10:46;;;;;;;6.55;3.53;;;34.40;65.00;;;;;;5133370;28;20047;-72
2022/08/07 08:13:13;;;;;;;6.90;3.70;;;34.60;34.90;;;;;;5133801;28;20425;-72
2022/08/07 08:15:41;;;;;;;7.22;3.30;;;34.40;34.60;;;;;;5133754;28;20096;-71
2022/08/07 08:18:10;;;;;;;4.88;3.28;;;34.40;34.70;;;;;;5133556;28;20058;-71
2022/08/07 08:20:38;;;;;;;4.78;3.00;;;34.00;34.50;;;;;;5115641;28;20066;-72
2022/08/07 08:28:43;;;;;;;7.03;3.63;;;32.30;36.30;;;;;;5133734;28;20055;-71
2022/08/07 08:31:11;;;;;;;5.65;3.40;;;30.90;38.20;;;;;;5133264;28;20092;-71
2022/08/07 08:33:39;;;;;;;5.90;3.92;;;30.40;38.90;;;;;;5133582;28;20130;-72
2022/08/07 08:36:08;;;;;;;4.70;3.15;;;;;;;;;;5133263;27;20131;-72
2022/08/07 08:38:38;;;;;;;6.97;3.63;;;29.20;39.70;;;;;;5144226;27;20127;-73
2022/08/07 08:41:16;;;;;;;5.50;3.40;;;28.30;42.10;;;;;;5143593;27;20035;-72
2022/08/07 08:44:06;;;;;;;6.68;4.03;;;28.20;42.20;;;;;;5115746;28;20122;-72
2022/08/07 08:47:13;;;;;;;6.20;3.28;;;27.70;42.50;;;;;;5133745;28;20452;-72
2022/08/07 08:50:21;;;;;;;4.80;2.78;;;27.40;44.10;;;;;;5032221;28;20050;-74
2022/08/07 08:53:18;;;;;;;5.15;3.10;;;27.00;44.20;;;;;;5073558;28;20048;-75
2022/08/07 08:56:09;;;;;;;4.75;2.55;;;26.80;44.50;;;;;;5069070;28;20109;-72
2022/08/07 08:58:47;;;;;;;6.57;2.90;;;26.80;44.70;;;;;;5126597;27;20055;-72
2022/08/07 09:01:38;;;;;;;6.53;2.72;;;27.00;44.80;;;;;;5136869;27;20364;-71
2022/08/07 09:04:26;;;;;;;5.20;3.28;;;27.10;44.90;;;;;;5136858;27;20058;-71
2022/08/07 09:07:07;;;;;;;5.25;2.92;;;26.90;44.80;;;;;;5118741;27;20087;-73
2022/08/07 09:09:57;;;;;;;4.20;2.70;;;26.90;45.90;;;;;;5137078;27;20043;-71
2022/08/07 09:12:34;;;;;;;4.75;2.78;;;26.70;45.40;;;;;;5136980;27;20043;-71
2022/08/07 09:15:31;;;;;;;4.70;2.85;;;26.50;45.50;;;;;;5136613;27;20051;-71
2022/08/07 09:18:34;;;;;;;4.13;2.40;;;26.10;45.40;;;;;;5136270;27;20051;-72
2022/08/07 09:21:27;;;;;;;5.07;2.70;;;25.70;46.30;;;;;;5136499;27;20051;-72
2022/08/07 09:24:19;;;;;;;5.23;3.10;;;25.40;47.10;;;;;;5136647;27;20180;-71
2022/08/07 09:26:55;;;;;;;5.20;2.85;;;25.40;47.20;;;;;;5136653;27;20398;-71
2022/08/07 09:29:51;;;;;;;5.20;3.00;;;25.30;47.50;;;;;;5136839;27;20047;-71
2022/08/07 09:32:20;;;;;;;5.67;2.87;;;25.20;49.10;;;;;;5099564;27;20104;-71
2022/08/07 09:35:01;;;;;;;6.57;3.10;;;25.20;48.90;;;;;;5136430;27;20090;-71
2022/08/07 09:37:44;;;;;;;5.60;3.00;;;25.20;48.90;;;;;;5136450;27;20479;-71
2022/08/07 09:40:37;;;;;;;6.03;2.90;;;25.10;49.10;;;;;;5136238;27;20047;-71
2022/08/07 09:43:27;;;;;;;6.50;2.70;;;25.00;49.10;;;;;;5136018;27;20043;-71
2022/08/07 09:46:02;;;;;;;4.93;2.70;;;24.80;49.00;;;;;;5136393;27;20046;-73
2022/08/07 09:48:40;;;;;;;;;;;24.70;49.10;;;;;;5137097;27;20100;-73
2022/08/07 09:51:35;;;;;;;4.80;3.20;;;24.60;49.40;;;;;;5136022;27;20010;-71
2022/08/07 09:54:02;;;;;;;3.97;2.50;;;24.40;49.80;;;;;;5135795;27;20134;-71
2022/08/07 09:57:09;;;;;;;5.60;3.07;;;24.40;49.90;;;;;;5136293;27;20495;-71
2022/08/07 09:59:55;;;;;;;5.00;3.20;;;24.30;51.10;;;;;;5135534;27;20043;-71
2022/08/07 10:02:50;;;;;;;5.87;2.80;;;24.30;51.10;;;;;;5135286;27;20127;-71
2022/08/07 10:05:19;;;;;;;4.97;3.00;;;24.20;51.60;;;;;;5117563;27;20100;-71
2022/08/07 10:08:15;;;;;;;4.87;2.97;;;24.00;51.80;;;;;;5135991;27;20047;-71
2022/08/07 10:11:01;;;;;;;4.37;2.90;;;24.10;52.10;;;;;;5135812;27;20344;-71
2022/08/07 10:13:49;;;;;;;5.47;2.87;;;24.10;52.30;;;;;;5135370;27;20046;-71
2022/08/07 10:16:40;;;;;;;4.47;2.97;;;24.00;52.10;;;;;;5135437;27;20058;-71
2022/08/07 10:19:28;;;;;;;4.30;2.63;;;24.00;51.90;;;;;;5134757;27;20506;-71
2022/08/07 10:22:27;;;;;;;4.77;2.40;;;23.90;51.90;;;;;;5135946;27;20118;-71
2022/08/07 10:25:14;;;;;;;3.77;2.47;;;23.90;52.50;;;;;;5135483;27;20126;-71
2022/08/07 10:28:06;;;;;;;5.80;2.60;;;24.00;52.30;;;;;;5135449;27;20391;-71
2022/08/07 10:31:01;;;;;;;4.63;3.07;;;23.90;51.60;;;;;;5135437;27;20055;-71
2022/08/07 10:33:48;;;;;;;6.93;2.70;;;23.90;51.90;;;;;;5135057;27;20555;-71
2022/08/07 10:36:22;;;;;;;4.60;2.70;;;23.90;53.70;;;;;;5135046;27;20043;-71
2022/08/07 10:38:51;;;;;;;4.63;2.60;;;23.90;52.60;;;;;;5135525;27;20130;-70
2022/08/07 10:41:38;;;;;;;5.40;2.87;;;23.90;52.20;;;;;;5134937;27;20047;-73
2022/08/07 10:44:18;;;;;;;6.17;3.10;;;23.90;52.20;;;;;;5134998;27;20043;-75
2022/08/07 10:47:00;;;;;;;5.47;2.83;;;23.80;52.00;;;;;;5135137;27;20058;-72
2022/08/07 10:49:36;;;;;;;4.43;2.57;;;23.70;52.30;;;;;;5116521;27;20517;-71
2022/08/07 10:52:27;;;;;;;6.43;2.80;;;23.50;52.30;;;;;;5134512;27;20394;-71
2022/08/07 10:55:25;;;;;;;4.83;2.70;;;23.60;52.60;;;;;;5135135;27;20043;-71
2022/08/07 10:58:28;;;;;;;4.60;2.87;;;23.70;53.00;;;;;;5134840;27;20054;-71
2022/08/07 11:01:03;;;;;;;5.47;2.87;;;23.80;53.20;;;;;;5082248;27;20089;-71
2022/08/07 11:03:40;;;;;;;4.55;2.78;;;23.90;53.50;;;;;;5134555;27;20039;-71
2022/08/07 11:06:40;;;;;;;5.80;2.90;;;23.90;53.80;;;;;;5134832;27;20047;-70
2022/08/07 11:09:17;;;;;;;5.00;2.50;;;23.90;53.00;;;;;;5134707;27;20057;-72
2022/08/07 11:12:03;;;;;;;6.23;2.90;;;23.80;53.30;;;;;;5134406;27;20038;-72
2022/08/07 11:14:42;;;;;;;4.87;2.80;;;23.80;53.90;;;;;;5134348;27;20116;-74
2022/08/07 11:17:22;;;;;;;4.77;2.90;;;23.90;53.50;;;;;;5134584;27;20039;-71
2022/08/07 11:20:05;;;;;;;5.47;2.70;;;24.00;54.10;;;;;;5134058;27;20059;-71
2022/08/07 11:23:00;;;;;;;5.33;3.00;;;24.00;54.10;;;;;;5134188;27;20426;-72
2022/08/07 11:25:38;;;;;;;5.55;2.78;;;24.00;53.80;;;;;;5090388;27;20051;-74
2022/08/07 11:28:18;;;;;;;4.93;2.80;;;23.80;54.00;;;;;;5134352;27;20143;-71
2022/08/07 11:30:53;;;;;;;4.90;2.60;;;23.80;54.20;;;;;;5134346;27;20050;-70
2022/08/07 11:33:41;;;;;;;4.77;2.93;;;24.00;54.30;;;;;;5134180;27;20047;-75
2022/08/07 11:36:18;;;;;;;5.17;3.17;;;24.10;53.80;;;;;;5134600;27;20105;-71
2022/08/07 11:39:06;;;;;;;5.87;2.73;;;24.20;54.30;;;;;;5134154;27;20051;-71
2022/08/07 11:41:43;;;;;;;4.73;2.87;;;24.50;54.40;;;;;;5133620;27;20800;-77
2022/08/07 11:44:21;;;;;;;8.20;3.47;;;24.60;53.10;;;;;;5133817;27;20399;-71
2022/08/07 11:47:05;;;;;;;5.50;2.77;;;24.60;53.10;;;;;;5134024;27;20487;-75
2022/08/07 11:49:43;;;;;;;6.40;2.70;;;24.60;53.00;;;;;;5133850;27;20114;-71
2022/08/07 11:52:41;;;;;;;5.63;2.80;;;24.70;53.00;;;;;;5115749;27;20043;-70
2022/08/07 11:55:32;;;;;;;5.97;3.00;;;24.60;53.00;;;;;;5134147;27;20425;-72
2022/08/07 11:58:07;;;;;;;6.03;3.20;;;24.50;52.80;;;;;;5133702;27;20499;-70
2022/08/07 12:01:08;;;;;;;4.67;2.80;;;24.40;53.10;;;;;;5133620;28;20047;-70
2022/08/07 12:04:01;;;;;;;5.47;3.10;;;24.30;53.30;;;;;;5115530;28;20054;-70
2022/08/07 12:06:42;;;;;;;6.83;3.33;;;24.20;53.10;;;;;;5133678;28;20126;-70
2022/08/07 12:09:25;;;;;;;5.63;3.03;;;24.00;53.10;;;;;;5133878;28;20043;-70
2022/08/07 12:11:57;;;;;;;4.87;2.80;;;23.80;53.70;;;;;;5134172;28;20372;-70
2022/08/07 12:14:28;;;;;;;7.30;2.97;;;23.70;54.40;;;;;;5133462;28;20046;-70
2022/08/07 12:17:00;;;;;;;5.13;2.70;;;23.60;54.30;;;;;;5133837;28;20083;-70
2022/08/07 12:19:35;;;;;;;6.23;3.10;;;23.50;54.20;;;;;;5133594;28;20055;-70
2022/08/07 12:22:07;;;;;;;;;;;23.40;54.60;;;;;;5134170;28;20051;-70
2022/08/07 12:27:52;;;;;;;5.60;2.90;;;23.50;54.60;;;;;;5108134;27;20050;-70
2022/08/07 12:30:20;;;;;;;6.33;3.10;;;23.40;54.60;;;;;;5137930;27;20187;-70
2022/08/07 12:33:04;;;;;;;4.60;2.57;;;23.40;54.90;;;;;;5137594;27;20122;-70
2022/08/07 12:35:32;;;;;;;5.78;2.25;;;23.50;55.30;;;;;;5137453;27;20051;-70
2022/08/07 12:37:59;;;;;;;5.60;2.50;;;23.50;55.30;;;;;;5137639;27;20058;-70
2022/08/07 12:40:29;;;;;;;5.20;2.43;;;23.40;55.40;;;;;;5137421;27;20055;-70
2022/08/07 12:42:58;;;;;;;6.13;2.83;;;23.30;55.60;;;;;;5137464;27;20035;-70
2022/08/07 12:45:38;;;;;;;5.30;2.30;;;23.20;55.90;;;;;;5137292;27;20127;-71
2022/08/07 12:48:26;;;;;;;5.07;2.57;;;23.20;55.90;;;;;;5137505;27;20042;-70
2022/08/07 12:51:17;;;;;;;5.47;1.90;;;23.10;55.90;;;;;;5137256;27;20109;-70
2022/08/07 12:54:11;;;;;;;4.63;1.90;;;23.10;54.30;;;;;;5118669;27;20138;-70
2022/08/07 12:56:42;;;;;;;3.33;1.77;;;23.10;53.10;;;;;;5133968;27;20047;-70
2022/08/07 12:59:15;;;;;;;3.47;2.13;;;23.10;52.90;;;;;;5137220;27;20043;-70
2022/08/07 13:01:57;;;;;;;4.40;1.70;;;23.20;53.00;;;;;;5136881;27;20054;-70
2022/08/07 13:04:39;;;;;;;4.50;1.80;;;23.20;52.30;;;;;;5137100;27;20387;-71
2022/08/07 13:07:26;;;;;;;4.37;1.87;;;23.20;52.30;;;;;;5137299;27;20039;-70
2022/08/07 13:09:58;;;;;;;4.67;1.80;;;23.10;52.30;;;;;;5137115;27;20049;-70
2022/08/07 13:13:01;;;;;;;4.23;1.83;;;23.10;52.10;;;;;;5136834;27;20043;-70
2022/08/07 13:15:49;;;;;;;3.73;2.10;;;23.10;51.90;;;;;;5136730;27;20100;-70
2022/08/07 13:19:01;;;;;;;6.13;2.10;;;23.10;52.00;;;;;;5136881;27;20059;-70
2022/08/07 13:21:37;;;;;;;4.03;1.70;;;23.00;52.10;;;;;;5136493;27;20459;-71
2022/08/07 13:24:26;;;;;;;3.53;1.50;;;22.90;51.80;;;;;;5136884;27;20356;-71
2022/08/07 13:27:16;;;;;;;3.03;2.00;;;22.80;52.40;;;;;;5136711;27;20039;-70
2022/08/07 13:30:02;;;;;;;3.27;1.70;;;22.80;51.90;;;;;;5136304;27;20047;-70
2022/08/07 13:33:08;;;;;;;3.17;1.60;;;22.80;51.80;;;;;;5136271;27;20043;-71
2022/08/07 13:35:46;;;;;;;4.43;1.70;;;22.80;51.80;;;;;;5135793;27;20376;-70